Time;durP1;ratioP1;P1;durP2;ratioP2;P2;SDS_P1;SDS_P2;PMS_P1;PMS_P2;Temp;Humidity;BMP_temperature;BMP_pressure;BME280_temperature;BME280_humidity;BME280_pressure;Samples;Min_cycle;Max_cycle;Signal;HPM_P1;HPM_P2
2022/06/24 00:00:13;;;;;;;5.63;3.00;;;;;;;19.23;65.15;100200.14;1764451;79;21050;-85
2022/06/24 00:02:40;;;;;;;4.73;2.87;;;;;;;19.25;65.15;100203.86;1760992;79;21498;-84
2022/06/24 00:05:10;;;;;;;6.90;3.17;;;;;;;19.26;65.09;100206.27;1765918;79;21743;-86
2022/06/24 00:07:47;;;;;;;4.37;3.07;;;;;;;19.26;64.96;100202.20;1765551;81;21030;-88
2022/06/24 00:10:21;;;;;;;4.77;3.00;;;;;;;19.28;64.85;100209.98;1766182;81;21047;-85
2022/06/24 00:12:51;;;;;;;7.47;3.20;;;;;;;19.29;64.81;100209.68;1765372;81;21042;-89
2022/06/24 00:15:28;;;;;;;4.23;2.97;;;;;;;19.30;64.73;100203.70;1764987;79;22004;-85
2022/06/24 00:17:54;;;;;;;4.77;3.10;;;;;;;19.30;64.65;100208.55;1761614;79;21058;-89
2022/06/24 00:20:22;;;;;;;5.77;3.47;;;;;;;19.30;64.65;100204.48;1765878;79;21118;-87
2022/06/24 00:22:50;;;;;;;6.77;3.50;;;;;;;19.30;64.85;100203.70;1767908;81;20920;-85
2022/06/24 00:25:23;;;;;;;6.70;3.50;;;;;;;19.30;65.04;100196.93;1756710;81;20985;-85
2022/06/24 00:28:08;;;;;;;5.23;3.10;;;;;;;19.30;65.30;100192.30;1768344;78;21136;-83
2022/06/24 00:30:44;;;;;;;6.47;3.30;;;;;;;19.28;65.81;100194.56;1739173;81;21548;-85
2022/06/24 00:33:14;;;;;;;6.27;2.93;;;;;;;19.23;66.47;100198.78;1736756;82;21065;-85
2022/06/24 00:35:53;;;;;;;5.93;3.13;;;;;;;19.16;66.73;100198.49;1762594;79;21046;-85
2022/06/24 00:38:34;;;;;;;6.17;3.10;;;;;;;19.13;66.92;100189.66;1760123;81;21058;-84
2022/06/24 00:41:12;;;;;;;6.50;3.20;;;;;;;19.09;67.19;100188.72;1767446;79;21146;-84
2022/06/24 00:43:45;;;;;;;6.27;3.30;;;;;;;19.06;67.43;100182.03;1767101;79;21051;-84
2022/06/24 00:46:17;;;;;;;5.63;3.00;;;;;;;19.06;67.52;100184.74;1778758;79;21095;-85
2022/06/24 00:48:51;;;;;;;;;;;;;;;19.06;67.55;100188.02;1783362;79;21569;-82
2022/06/24 00:51:18;;;;;;;5.80;3.20;;;;;;;19.07;67.57;100188.24;1737288;80;20170;-86
2022/06/24 00:53:51;;;;;;;5.23;3.27;;;;;;;19.07;67.57;100185.53;1749146;80;21749;-85
2022/06/24 00:56:26;;;;;;;4.07;3.00;;;;;;;19.07;67.46;100193.09;1751744;80;21034;-83
2022/06/24 00:59:00;;;;;;;4.60;2.90;;;;;;;19.06;67.29;100190.16;1767528;80;21091;-86
2022/06/24 01:01:36;;;;;;;6.70;3.27;;;;;;;19.05;67.20;100193.17;1725890;81;21557;-86
2022/06/24 01:04:04;;;;;;;4.97;3.10;;;;;;;19.05;67.11;100192.64;1752147;80;21035;-83
2022/06/24 01:06:33;;;;;;;4.03;2.90;;;;;;;19.06;67.16;100190.72;1752880;80;22249;-83
2022/06/24 01:08:59;;;;;;;5.40;2.90;;;;;;;19.07;67.13;100193.66;1749255;80;21004;-87
2022/06/24 01:11:31;;;;;;;5.53;3.20;;;;;;;19.07;67.09;100188.24;1745928;80;21004;-84
2022/06/24 01:13:57;;;;;;;;;;;;;;;19.07;67.17;100197.15;1755255;80;20956;-83
2022/06/24 01:16:24;;;;;;;3.90;2.80;;;;;;;19.06;67.16;100194.78;1754290;80;20316;-86
2022/06/24 01:18:53;;;;;;;4.73;3.57;;;;;;;19.04;67.24;100201.06;1752722;80;21089;-86
2022/06/24 01:21:42;;;;;;;3.97;3.00;;;;;;;19.05;67.28;100202.64;1754220;80;21407;-82
2022/06/24 01:24:16;;;;;;;7.20;3.10;;;;;;;19.03;67.23;100196.22;1753749;80;21050;-88
2022/06/24 01:26:46;;;;;;;3.77;3.03;;;;;;;19.05;67.20;100194.52;1777406;79;20987;-87
2022/06/24 01:29:14;;;;;;;4.53;3.10;;;;;;;19.05;67.22;100193.98;1779837;80;21518;-86
2022/06/24 01:31:42;;;;;;;5.10;3.27;;;;;;;19.08;67.27;100195.23;1779766;79;21538;-84
2022/06/24 01:34:10;;;;;;;6.30;3.33;;;;;;;19.09;67.26;100191.43;1778305;79;21463;-86
2022/06/24 01:36:36;;;;;;;5.03;3.30;;;;;;;19.10;67.24;100187.03;1765586;79;21042;-85
2022/06/24 01:39:04;;;;;;;6.23;3.40;;;;;;;19.12;67.19;100186.73;1764064;79;21015;-85
2022/06/24 01:41:31;;;;;;;7.73;3.00;;;;;;;19.13;67.14;100191.02;1765086;79;21043;-89
2022/06/24 01:43:58;;;;;;;6.17;3.07;;;;;;;19.18;67.05;100190.29;1764525;79;21069;-87
2022/06/24 01:46:25;;;;;;;8.70;3.30;;;;;;;19.20;66.91;100185.89;1759928;79;21122;-87
2022/06/24 01:48:51;;;;;;;4.97;3.30;;;;;;;19.21;66.83;100184.20;1766296;79;21097;-90
2022/06/24 01:51:18;;;;;;;4.37;2.80;;;;;;;19.24;66.74;100184.12;1761474;79;21054;-85
2022/06/24 01:53:44;;;;;;;5.73;3.20;;;;;;;19.25;66.66;100177.61;1737941;81;21018;-87
2022/06/24 01:56:12;;;;;;;4.67;3.03;;;;;;;19.26;66.66;100179.75;1767954;79;21072;-85
2022/06/24 01:58:39;;;;;;;6.33;3.30;;;;;;;19.27;66.67;100188.09;1765996;79;21146;-83
2022/06/24 02:01:07;;;;;;;6.33;3.10;;;;;;;19.26;66.74;100180.54;1768371;79;21058;-83
2022/06/24 02:03:34;;;;;;;4.40;3.03;;;;;;;19.27;66.73;100187.53;1766117;79;21007;-84
2022/06/24 02:06:04;;;;;;;4.47;3.27;;;;;;;19.29;66.76;100188.58;1756966;79;21015;-88
2022/06/24 02:08:31;;;;;;;5.40;3.20;;;;;;;19.30;66.73;100188.24;1774988;79;21113;-85
2022/06/24 02:13:46;;;;;;;6.03;4.23;;;;;;;19.30;66.62;100181.47;1750828;80;20995;-86
2022/06/24 02:16:12;;;;;;;6.80;4.53;;;;;;;19.32;66.65;100190.08;1725679;80;21028;-88
2022/06/24 02:18:39;;;;;;;6.53;4.70;;;;;;;19.36;66.69;100189.66;1725640;81;21043;-85
2022/06/24 02:21:07;;;;;;;8.37;5.30;;;;;;;19.37;66.79;100193.16;1750925;80;21510;-88
2022/06/24 02:23:34;;;;;;;6.37;4.40;;;;;;;19.39;66.93;100186.30;1751735;80;21008;-86
2022/06/24 02:26:01;;;;;;;8.03;3.87;;;;;;;19.41;67.14;100185.42;1752380;80;21082;-86
2022/06/24 02:28:28;;;;;;;5.87;3.50;;;;;;;19.45;67.32;100183.65;1748570;80;20988;-90
2022/06/24 02:30:58;;;;;;;6.33;3.50;;;;;;;19.48;67.38;100181.39;1759991;81;21014;-89
2022/06/24 02:33:26;;;;;;;5.87;3.50;;;;;;;19.49;67.50;100183.00;1764148;79;22224;-84
2022/06/24 02:35:53;;;;;;;5.83;3.23;;;;;;;19.53;67.52;100186.64;1763759;79;21613;-90
2022/06/24 02:38:24;;;;;;;4.90;3.90;;;;;;;19.56;67.55;100187.34;1780010;79;21074;-87
2022/06/24 02:40:55;;;;;;;6.13;4.10;;;;;;;19.60;67.28;100193.69;1772539;79;21086;-85
2022/06/24 02:43:32;;;;;;;6.53;4.13;;;;;;;19.62;66.97;100187.40;1778766;79;21062;-90
2022/06/24 02:46:05;;;;;;;6.12;3.87;;;;;;;19.66;66.62;100197.84;1779225;79;21197;-87
2022/06/24 02:48:33;;;;;;;5.55;4.08;;;;;;;19.70;66.25;100192.00;1780062;79;21066;-87
2022/06/24 02:51:03;;;;;;;6.13;4.13;;;;;;;19.75;65.72;100183.69;1779961;79;21039;-86
2022/06/24 02:53:35;;;;;;;5.23;3.70;;;;;;;19.77;65.08;100180.64;1779800;79;21051;-86
2022/06/24 02:56:07;;;;;;;6.13;3.57;;;;;;;19.79;64.53;100181.12;1779380;79;21054;-87
2022/06/24 02:58:35;;;;;;;5.73;3.23;;;;;;;19.79;63.74;100181.91;1781373;79;21098;-85
2022/06/24 03:01:02;;;;;;;6.73;3.20;;;;;;;19.80;63.31;100179.42;1776070;79;21036;-85
2022/06/24 03:03:30;;;;;;;5.57;3.43;;;;;;;19.79;62.80;100180.55;1778903;79;21098;-90
2022/06/24 03:05:58;;;;;;;5.63;3.57;;;;;;;19.79;62.45;100177.05;1780113;79;21086;-88
2022/06/24 03:08:26;;;;;;;7.97;3.57;;;;;;;19.79;62.31;100176.48;1778428;79;21110;-86
2022/06/24 03:10:55;;;;;;;7.17;3.40;;;;;;;19.81;62.13;100177.50;1759923;81;21102;-87
2022/06/24 03:13:21;;;;;;;7.97;3.20;;;;;;;19.81;61.86;100182.92;1747398;82;21514;-86
2022/06/24 03:15:49;;;;;;;6.90;3.23;;;;;;;19.81;61.37;100181.56;1752521;80;21082;-89
2022/06/24 03:18:17;;;;;;;6.40;2.73;;;;;;;19.81;60.57;100180.22;1754787;81;21015;-86
2022/06/24 03:20:46;;;;;;;5.93;2.90;;;;;;;19.79;60.10;100179.20;1754526;80;21054;-86
2022/06/24 03:23:14;;;;;;;5.00;2.80;;;;;;;19.79;59.86;100179.77;1747739;80;21239;-86
2022/06/24 03:25:41;;;;;;;5.50;3.17;;;;;;;19.79;59.62;100183.27;1756812;78;21012;-83
2022/06/24 03:28:07;;;;;;;7.20;3.20;;;;;;;19.79;59.39;100183.83;1757905;80;20999;-82
2022/06/24 03:30:34;;;;;;;5.53;2.73;;;;;;;19.77;59.04;100176.02;1785214;77;20991;-82
2022/06/24 03:33:01;;;;;;;5.87;2.90;;;;;;;19.75;58.92;100176.92;1753245;80;20956;-85
2022/06/24 03:35:29;;;;;;;5.87;3.00;;;;;;;19.74;58.75;100175.87;1751850;81;21143;-84
2022/06/24 03:37:55;;;;;;;5.23;2.90;;;;;;;19.71;58.50;100173.28;1748741;80;21067;-86
2022/06/24 03:40:22;;;;;;;4.53;2.80;;;;;;;19.70;58.40;100174.38;1746110;80;21000;-84
2022/06/24 03:42:49;;;;;;;5.33;2.60;;;;;;;19.69;58.33;100178.22;1751329;80;21035;-84
2022/06/24 03:45:15;;;;;;;4.53;2.87;;;;;;;19.71;58.36;100171.11;1749347;80;21601;-84
2022/06/24 03:47:42;;;;;;;3.97;2.90;;;;;;;19.72;58.30;100178.92;1751850;80;21320;-81
2022/06/24 03:50:08;;;;;;;5.03;2.70;;;;;;;19.72;58.28;100190.33;1750280;80;21103;-83
2022/06/24 03:52:35;;;;;;;5.73;3.00;;;;;;;19.72;58.30;100192.47;1752633;81;21016;-87
2022/06/24 03:55:02;;;;;;;4.87;3.10;;;;;;;19.71;58.21;100196.31;1752860;81;21024;-86
2022/06/24 03:57:30;;;;;;;4.83;2.80;;;;;;;19.71;58.15;100188.72;1752555;81;21573;-86
2022/06/24 03:59:57;;;;;;;6.50;3.00;;;;;;;19.71;58.25;100204.44;1753039;81;21099;-84
2022/06/24 04:02:26;;;;;;;5.73;2.80;;;;;;;19.73;58.36;100195.41;1753736;81;21502;-90
2022/06/24 04:04:52;;;;;;;5.20;2.80;;;;;;;19.77;58.22;100195.55;1752444;80;21117;-82
2022/06/24 04:07:19;;;;;;;5.20;2.80;;;;;;;19.80;58.10;100195.69;1751713;80;21590;-86
2022/06/24 04:09:46;;;;;;;5.67;3.13;;;;;;;19.87;58.06;100203.30;1752560;80;21628;-86
2022/06/24 04:12:14;;;;;;;6.33;3.30;;;;;;;19.94;57.87;100205.49;1751820;80;21514;-86
2022/06/24 04:17:28;;;;;;;6.80;3.00;;;;;;;20.04;57.46;100198.33;1751192;80;21038;-84
2022/06/24 04:19:55;;;;;;;4.93;2.90;;;;;;;20.14;57.24;100206.10;1752758;80;21553;-82
2022/06/24 04:22:23;;;;;;;6.30;2.90;;;;;;;20.24;56.94;100200.85;1751826;80;20992;-86
2022/06/24 04:24:50;;;;;;;6.17;2.80;;;;;;;20.31;56.57;100201.90;1750555;80;21212;-86
2022/06/24 04:27:17;;;;;;;4.67;2.73;;;;;;;20.36;56.25;100203.04;1751934;80;21012;-86
2022/06/24 04:29:46;;;;;;;6.33;2.70;;;;;;;20.40;55.89;100205.91;1752685;81;21012;-88
2022/06/24 04:32:12;;;;;;;5.47;3.00;;;;;;;20.41;55.70;100206.70;1753764;81;21028;-83
2022/06/24 04:34:41;;;;;;;4.83;2.77;;;;;;;20.44;55.56;100213.61;1751304;80;21067;-87
2022/06/24 04:37:10;;;;;;;3.63;2.50;;;;;;;20.46;55.15;100211.34;1750844;80;21146;-84
2022/06/24 04:39:37;;;;;;;3.33;2.30;;;;;;;20.50;55.35;100209.58;1751040;80;20996;-85
2022/06/24 04:42:05;;;;;;;4.87;2.63;;;;;;;20.55;54.94;100210.75;1750074;80;21539;-88
2022/06/24 04:44:32;;;;;;;4.23;2.50;;;;;;;20.64;55.17;100211.25;1747227;80;20960;-84
2022/06/24 04:46:58;;;;;;;5.50;3.00;;;;;;;20.71;54.84;100213.64;1749838;80;21487;-87
2022/06/24 04:49:25;;;;;;;4.87;2.50;;;;;;;20.78;54.44;100216.61;1753244;81;21146;-89
2022/06/24 04:51:51;;;;;;;6.03;3.13;;;;;;;20.81;54.38;100217.30;1753141;81;20981;-87
2022/06/24 04:54:18;;;;;;;4.53;2.80;;;;;;;20.85;54.25;100221.49;1725347;83;21000;-84
2022/06/24 04:56:47;;;;;;;4.53;2.37;;;;;;;20.88;54.05;100220.83;1740649;78;20910;-75
2022/06/24 04:59:14;;;;;;;7.47;3.07;;;;;;;20.89;53.92;100225.12;1757826;81;20889;-89
2022/06/24 05:01:44;;;;;;;4.17;2.77;;;;;;;20.89;54.06;100222.41;1744792;80;21200;-88
2022/06/24 05:04:13;;;;;;;5.07;2.67;;;;;;;20.90;54.06;100223.23;1741557;81;21103;-85
2022/06/24 05:06:40;;;;;;;3.63;2.43;;;;;;;20.90;54.02;100224.02;1747056;80;21043;-84
2022/06/24 05:09:08;;;;;;;6.80;2.83;;;;;;;20.92;54.02;100226.38;1752698;78;20988;-84
2022/06/24 05:11:35;;;;;;;8.10;2.70;;;;;;;20.95;53.90;100227.07;1750465;80;21058;-85
2022/06/24 05:14:03;;;;;;;9.43;2.63;;;;;;;21.00;53.71;100218.73;1752548;80;21192;-86
2022/06/24 05:16:34;;;;;;;4.13;2.73;;;;;;;21.08;53.26;100223.27;1753577;80;21170;-86
2022/06/24 05:19:01;;;;;;;7.93;2.70;;;;;;;21.21;52.82;100226.23;1752128;80;21185;-80
2022/06/24 05:21:30;;;;;;;3.53;2.60;;;;;;;21.33;52.72;100232.84;1750540;80;21110;-81
2022/06/24 05:23:57;;;;;;;9.60;2.50;;;;;;;21.44;51.70;100232.65;1749493;80;21577;-84
2022/06/24 05:26:24;;;;;;;5.80;2.80;;;;;;;21.52;51.87;100226.33;1750265;80;21800;-81
2022/06/24 05:28:50;;;;;;;3.60;2.50;;;;;;;21.62;51.82;100236.75;1752816;80;20980;-86
2022/06/24 05:31:17;;;;;;;6.77;2.60;;;;;;;21.65;51.15;100232.00;1727877;81;21283;-81
2022/06/24 05:33:45;;;;;;;4.17;2.30;;;;;;;21.65;50.81;100233.36;1744442;81;21047;-86
2022/06/24 05:36:11;;;;;;;5.10;2.80;;;;;;;21.68;50.83;100235.94;1752939;81;21641;-84
2022/06/24 05:38:38;;;;;;;4.63;2.67;;;;;;;21.68;50.45;100232.66;1753925;81;21643;-86
2022/06/24 05:41:04;;;;;;;5.10;2.43;;;;;;;21.68;50.61;100244.09;1754203;81;21562;-85
2022/06/24 05:43:31;;;;;;;4.93;2.53;;;;;;;21.69;50.56;100245.70;1753901;81;21055;-90
2022/06/24 05:45:58;;;;;;;4.70;2.70;;;;;;;21.69;50.51;100253.28;1753970;81;21022;-84
2022/06/24 05:48:24;;;;;;;4.60;2.50;;;;;;;21.71;50.62;100246.14;1753940;81;21051;-87
2022/06/24 05:50:51;;;;;;;3.53;2.43;;;;;;;21.73;50.52;100241.95;1749311;81;21127;-84
2022/06/24 05:56:02;;;;;;;9.60;3.00;;;;;;;21.87;50.30;100257.13;1738607;81;21069;-82
2022/06/24 05:58:30;;;;;;;5.57;2.80;;;;;;;21.95;50.20;100252.16;1747115;80;21482;-85
2022/06/24 06:00:56;;;;;;;4.13;2.83;;;;;;;22.06;50.16;100263.36;1729225;81;21094;-84
2022/06/24 06:03:24;;;;;;;5.80;2.70;;;;;;;22.17;49.97;100257.70;1723308;81;21586;-82
2022/06/24 06:05:52;;;;;;;5.10;2.60;;;;;;;22.26;49.52;100263.81;1752671;81;20999;-81
2022/06/24 06:08:18;;;;;;;5.67;2.60;;;;;;;22.34;49.63;100263.45;1753231;81;21039;-81
2022/06/24 06:10:45;;;;;;;4.30;2.33;;;;;;;22.38;49.38;100262.44;1746410;80;21401;-80
2022/06/24 06:13:12;;;;;;;8.03;2.80;;;;;;;22.42;49.55;100253.80;1750371;80;21110;-79
2022/06/24 06:15:42;;;;;;;4.37;2.73;;;;;;;22.45;49.32;100250.40;1750779;80;21134;-82
2022/06/24 06:18:08;;;;;;;3.60;2.43;;;;;;;22.50;49.00;100256.73;1750724;80;21475;-84
2022/06/24 06:20:35;;;;;;;5.33;2.57;;;;;;;22.59;48.86;100258.18;1746596;80;21582;-84
2022/06/24 06:23:04;;;;;;;4.83;2.77;;;;;;;22.66;47.83;100254.88;1720823;81;21007;-82
2022/06/24 06:25:33;;;;;;;4.23;2.63;;;;;;;22.74;47.08;100258.58;1752891;80;21051;-84
2022/06/24 06:28:05;;;;;;;4.70;2.90;;;;;;;22.74;47.08;100258.58;1753568;80;21515;-82
2022/06/24 06:30:30;;;;;;;6.67;2.60;;;;;;;22.75;46.90;100256.88;1755323;78;20992;-80
2022/06/24 06:32:57;;;;;;;5.00;2.90;;;;;;;22.77;46.48;100260.61;1753919;80;20999;-82
2022/06/24 06:35:25;;;;;;;5.43;2.60;;;;;;;22.77;46.73;100258.70;1751409;80;21079;-82
2022/06/24 06:37:53;;;;;;;5.03;3.00;;;;;;;22.79;46.78;100259.70;1752342;80;20995;-86
2022/06/24 06:40:19;;;;;;;5.03;2.67;;;;;;;22.82;47.15;100268.55;1751962;80;21514;-84
2022/06/24 06:42:46;;;;;;;4.40;2.80;;;;;;;22.90;47.32;100273.85;1747793;80;21031;-82
2022/06/24 06:45:14;;;;;;;5.37;2.93;;;;;;;23.01;47.10;100272.02;1750516;80;21037;-87
2022/06/24 06:47:42;;;;;;;5.77;3.10;;;;;;;23.05;46.33;100279.14;1752905;80;21008;-86
2022/06/24 06:50:09;;;;;;;4.80;2.73;;;;;;;23.06;46.21;100273.91;1753692;81;21079;-86
2022/06/24 06:52:35;;;;;;;4.93;3.10;;;;;;;23.08;46.56;100277.66;1752525;80;21287;-84
2022/06/24 06:55:02;;;;;;;6.00;2.73;;;;;;;23.07;45.98;100277.44;1733108;80;21511;-80
2022/06/24 06:57:29;;;;;;;7.53;3.10;;;;;;;23.05;46.59;100279.71;1764571;79;20975;-83
2022/06/24 06:59:55;;;;;;;6.13;3.20;;;;;;;23.08;46.83;100285.25;1764217;79;21292;-81
2022/06/24 07:02:24;;;;;;;4.77;2.97;;;;;;;23.15;46.47;100284.08;1765586;79;21190;-84
2022/06/24 07:04:50;;;;;;;4.63;3.13;;;;;;;23.15;46.26;100280.56;1778072;79;21120;-82
2022/06/24 07:07:17;;;;;;;7.40;3.30;;;;;;;23.13;46.43;100283.66;1753589;80;21098;-82
2022/06/24 07:09:44;;;;;;;4.53;2.70;;;;;;;23.16;46.47;100282.95;1779871;79;21062;-83
2022/06/24 07:12:11;;;;;;;7.43;3.17;;;;;;;23.20;46.01;100287.14;1780700;80;21031;-84
2022/06/24 07:14:41;;;;;;;5.07;3.00;;;;;;;23.23;46.27;100294.62;1773367;79;21074;-81
2022/06/24 07:17:08;;;;;;;6.13;3.60;;;;;;;23.24;46.18;100290.74;1775101;79;21111;-82
2022/06/24 07:19:36;;;;;;;4.87;3.13;;;;;;;23.26;45.79;100284.36;1779188;80;21027;-78
2022/06/24 07:22:03;;;;;;;5.37;3.20;;;;;;;23.24;46.17;100279.05;1778346;80;21172;-75
2022/06/24 07:24:30;;;;;;;5.67;3.43;;;;;;;23.31;46.31;100277.30;1780040;80;21090;-80
2022/06/24 07:26:57;;;;;;;6.00;2.90;;;;;;;23.45;46.08;100276.08;1751143;80;21734;-80
2022/06/24 07:29:23;;;;;;;8.07;3.20;;;;;;;23.55;45.62;100283.16;1780177;80;21478;-85
2022/06/24 07:31:50;;;;;;;6.90;3.43;;;;;;;23.57;44.86;100278.73;1780515;80;21027;-81
2022/06/24 07:34:19;;;;;;;7.63;3.40;;;;;;;23.54;45.27;100273.98;1777252;79;21039;-82
2022/06/24 07:36:46;;;;;;;4.60;3.10;;;;;;;23.55;45.55;100274.98;1769612;80;21530;-84
2022/06/24 07:39:12;;;;;;;4.03;2.90;;;;;;;23.61;45.36;100268.70;1759349;81;22119;-80
2022/06/24 07:41:41;;;;;;;6.17;3.33;;;;;;;23.69;45.28;100272.42;1754471;80;21251;-82
2022/06/24 07:44:09;;;;;;;4.57;3.00;;;;;;;23.73;45.35;100282.86;1757885;80;21026;-83
2022/06/24 07:46:36;;;;;;;5.90;3.60;;;;;;;23.75;45.47;100279.98;1764161;81;21011;-81
2022/06/24 07:49:02;;;;;;;6.23;3.43;;;;;;;23.75;45.20;100277.83;1762594;80;21640;-79
2022/06/24 07:51:29;;;;;;;4.33;3.40;;;;;;;23.73;45.67;100284.23;1761318;80;21106;-85
2022/06/24 07:53:55;;;;;;;7.00;3.43;;;;;;;23.71;45.42;100283.78;1757697;80;21473;-85
2022/06/24 07:59:08;;;;;;;6.37;3.37;;;;;;;23.62;45.62;100278.45;1764118;80;21058;-78
2022/06/24 08:01:36;;;;;;;6.13;3.63;;;;;;;23.57;45.35;100289.64;1759744;80;21039;-83
2022/06/24 08:04:10;;;;;;;5.77;3.00;;;;;;;23.49;44.93;100279.69;1758235;80;21054;-85
2022/06/24 08:06:38;;;;;;;5.40;3.27;;;;;;;23.46;45.09;100281.75;1758163;80;21150;-84
2022/06/24 08:09:04;;;;;;;6.00;3.50;;;;;;;23.48;45.31;100280.27;1761039;80;21094;-82
2022/06/24 08:11:31;;;;;;;6.73;3.33;;;;;;;23.51;44.32;100275.47;1757891;80;21110;-82
2022/06/24 08:13:58;;;;;;;4.53;3.40;;;;;;;23.54;44.35;100271.26;1761253;80;21111;-80
2022/06/24 08:16:25;;;;;;;6.20;3.60;;;;;;;23.59;44.19;100271.80;1759343;80;21066;-78
2022/06/24 08:18:52;;;;;;;6.07;3.47;;;;;;;23.63;44.43;100268.58;1762958;80;21887;-81
2022/06/24 08:21:22;;;;;;;5.37;3.17;;;;;;;23.73;44.49;100266.50;1761451;80;21541;-82
2022/06/24 08:23:50;;;;;;;6.17;3.42;;;;;;;23.84;44.11;100267.53;1754193;80;20995;-80
2022/06/24 08:26:19;;;;;;;5.57;3.33;;;;;;;23.92;43.68;100264.39;1762444;80;21050;-80
2022/06/24 08:28:46;;;;;;;6.30;3.30;;;;;;;23.96;43.50;100270.17;1761205;80;21070;-82
2022/06/24 08:31:19;;;;;;;5.70;3.20;;;;;;;23.98;43.53;100267.08;1741386;80;21146;-78
2022/06/24 08:33:46;;;;;;;5.07;3.47;;;;;;;23.97;43.04;100269.02;1760881;80;20987;-82
2022/06/24 08:36:12;;;;;;;7.20;3.93;;;;;;;23.98;42.91;100277.41;1763387;80;21026;-77
2022/06/24 08:38:39;;;;;;;5.57;3.30;;;;;;;23.99;43.10;100272.77;1762025;80;21082;-76
2022/06/24 08:41:05;;;;;;;5.73;3.30;;;;;;;23.99;43.53;100273.55;1761161;80;21768;-80
2022/06/24 08:43:39;;;;;;;5.47;3.30;;;;;;;24.03;43.34;100270.91;1763274;80;21824;-83
2022/06/24 08:46:14;;;;;;;8.33;3.45;;;;;;;24.09;43.23;100262.09;1762799;81;21011;-82
2022/06/24 08:48:48;;;;;;;5.80;3.60;;;;;;;24.15;42.75;100276.23;1762774;81;21530;-80
2022/06/24 08:51:27;;;;;;;6.97;3.57;;;;;;;24.17;42.98;100267.70;1735637;81;21137;-79
2022/06/24 08:54:02;;;;;;;;;;;;;;;24.26;42.93;100272.40;1765691;80;20928;-85
2022/06/24 08:56:32;;;;;;;5.23;3.47;;;;;;;24.36;42.88;100267.75;1759175;81;21036;-82
2022/06/24 08:59:01;;;;;;;6.30;3.93;;;;;;;24.53;42.70;100272.03;1704433;82;21472;-82
2022/06/24 09:01:41;;;;;;;6.50;3.30;;;;;;;24.74;42.17;100258.02;1750627;81;21027;-85
2022/06/24 09:04:17;;;;;;;5.03;3.53;;;;;;;24.95;42.17;100260.39;1763895;81;21097;-82
2022/06/24 09:06:44;;;;;;;4.83;3.40;;;;;;;25.24;41.55;100265.26;1763854;81;21063;-87
2022/06/24 09:09:13;;;;;;;5.80;3.20;;;;;;;25.47;41.00;100253.55;1763912;81;21199;-82
2022/06/24 09:11:41;;;;;;;5.33;3.30;;;;;;;25.64;40.76;100254.99;1757606;80;21081;-81
2022/06/24 09:14:09;;;;;;;5.30;3.30;;;;;;;25.77;41.04;100264.58;1761522;80;21051;-83
2022/06/24 09:16:37;;;;;;;8.50;3.80;;;;;;;25.93;40.44;100254.89;1760051;80;21219;-80
2022/06/24 09:19:06;;;;;;;5.00;3.20;;;;;;;26.08;39.59;100257.23;1744741;80;21109;-82
2022/06/24 09:21:41;;;;;;;5.20;3.63;;;;;;;26.16;39.33;100249.36;1747640;80;21522;-85
2022/06/24 09:24:08;;;;;;;4.70;3.33;;;;;;;26.27;39.31;100248.91;1760348;80;21576;-79
2022/06/24 09:26:39;;;;;;;4.40;3.20;;;;;;;26.41;38.74;100240.87;1758584;80;20980;-79
2022/06/24 09:29:14;;;;;;;4.42;3.17;;;;;;;26.57;39.14;100244.03;1761501;80;21058;-80
2022/06/24 09:31:41;;;;;;;5.73;3.37;;;;;;;26.69;38.33;100230.09;1763844;80;21035;-79
2022/06/24 09:34:13;;;;;;;5.80;3.20;;;;;;;26.81;38.28;100245.48;1762368;80;21174;-77
2022/06/24 09:36:44;;;;;;;5.87;3.67;;;;;;;26.97;37.69;100249.38;1758579;80;21176;-82
2022/06/24 09:39:12;;;;;;;4.10;3.20;;;;;;;27.04;37.08;100243.38;1761774;80;20988;-79
2022/06/24 09:42:11;;;;;;;4.50;3.50;;;;;;;26.99;36.97;100238.83;1749388;81;21546;-78
2022/06/24 09:44:45;;;;;;;4.63;3.30;;;;;;;26.98;36.92;100250.94;1682175;81;21003;-80
2022/06/24 09:47:11;;;;;;;5.13;3.30;;;;;;;27.00;36.03;100236.29;1763514;80;21780;-77
2022/06/24 09:49:37;;;;;;;4.17;2.97;;;;;;;27.02;36.29;100240.83;1762051;80;21062;-76
2022/06/24 09:52:04;;;;;;;5.13;3.57;;;;;;;27.07;36.11;100244.58;1685296;80;21074;-80
2022/06/24 09:54:31;;;;;;;6.17;3.30;;;;;;;27.15;35.84;100250.39;1763709;80;21071;-77
2022/06/24 09:56:57;;;;;;;4.70;3.20;;;;;;;27.18;35.31;100237.85;1762559;80;21499;-80
2022/06/24 10:02:02;;;;;;;5.17;3.53;;;;;;;27.02;35.58;100242.20;1746402;80;21078;-75
2022/06/24 10:04:29;;;;;;;5.07;3.30;;;;;;;26.79;35.77;100238.23;1763706;80;21043;-79
2022/06/24 10:06:56;;;;;;;4.60;3.10;;;;;;;26.59;36.48;100226.66;1763983;80;21034;-83
2022/06/24 10:09:29;;;;;;;5.60;3.47;;;;;;;26.45;37.11;100240.91;1763721;80;21003;-78
2022/06/24 10:11:59;;;;;;;5.37;3.40;;;;;;;26.38;37.89;100240.24;1762177;80;22021;-78
2022/06/24 10:14:27;;;;;;;5.77;3.60;;;;;;;26.36;37.80;100232.22;1762106;80;21042;-75
2022/06/24 10:16:53;;;;;;;5.40;3.10;;;;;;;26.35;37.77;100230.62;1733731;80;21542;-80
2022/06/24 10:19:20;;;;;;;4.30;3.30;;;;;;;26.31;37.88;100232.53;1760984;80;21286;-78
2022/06/24 10:21:48;;;;;;;4.90;3.30;;;;;;;26.27;38.06;100244.02;1707955;80;21034;-75
2022/06/24 10:24:16;;;;;;;4.70;4.20;;;;;;;26.26;38.28;100245.16;1762187;80;21138;-78
2022/06/24 10:26:47;;;;;;;6.73;4.50;;;;;;;26.23;38.33;100238.50;1763174;80;21062;-78
2022/06/24 10:29:19;;;;;;;6.10;4.40;;;;;;;26.24;38.11;100244.17;1759697;80;21110;-79
2022/06/24 10:31:54;;;;;;;5.23;3.47;;;;;;;26.27;38.50;100244.02;1763374;80;21038;-79
2022/06/24 10:34:28;;;;;;;6.57;4.77;;;;;;;26.33;38.06;100235.11;1761744;80;21011;-77
2022/06/24 10:37:03;;;;;;;5.63;4.53;;;;;;;26.43;37.97;100228.98;1761234;80;21913;-80
2022/06/24 10:39:37;;;;;;;5.00;3.53;;;;;;;26.44;37.26;100225.06;1757133;80;21058;-76
2022/06/24 10:42:08;;;;;;;5.33;3.70;;;;;;;26.45;37.47;100236.80;1763489;80;21883;-78
2022/06/24 10:44:37;;;;;;;;;;;;;;;26.41;37.57;100232.66;1765447;80;21007;-80
2022/06/24 10:47:15;;;;;;;4.13;3.20;;;;;;;26.34;37.58;100216.73;1764294;80;20174;-77
2022/06/24 10:50:02;;;;;;;6.00;3.60;;;;;;;26.26;38.00;100223.25;1764562;80;21229;-79
2022/06/24 10:52:50;;;;;;;5.47;3.90;;;;;;;26.28;38.03;100214.89;1761347;81;20999;-77
2022/06/24 10:55:30;;;;;;;7.03;3.97;;;;;;;26.42;37.78;100223.86;1733846;81;21145;-74
2022/06/24 10:58:11;;;;;;;5.53;3.80;;;;;;;26.63;37.01;100220.05;1753458;80;21059;-79
2022/06/24 11:00:48;;;;;;;5.53;4.10;;;;;;;26.90;37.04;100213.87;1760680;80;21113;-77
2022/06/24 11:03:12;;;;;;;5.20;3.60;;;;;;;27.18;36.19;100211.81;1779858;79;21114;-79
2022/06/24 11:05:45;;;;;;;5.47;3.73;;;;;;;27.27;35.67;100211.70;1752481;80;21044;-80
2022/06/24 11:08:19;;;;;;;7.10;3.85;;;;;;;27.18;35.83;100213.98;1752592;80;21126;-78
2022/06/24 11:10:49;;;;;;;4.37;3.50;;;;;;;26.98;36.15;100229.02;1753785;80;20995;-76
2022/06/24 11:13:16;;;;;;;4.70;3.50;;;;;;;26.75;36.21;100212.17;1751802;80;21152;-78
2022/06/24 11:15:52;;;;;;;6.57;3.97;;;;;;;26.57;36.76;100225.64;1750705;80;21161;-78
2022/06/24 11:18:26;;;;;;;5.93;3.80;;;;;;;26.49;36.79;100225.37;1725181;83;21015;-79
2022/06/24 11:21:01;;;;;;;7.97;3.80;;;;;;;26.46;36.98;100220.60;1736966;80;21079;-81
2022/06/24 11:23:33;;;;;;;5.90;3.30;;;;;;;26.55;36.90;100216.22;1752794;80;20980;-80
2022/06/24 11:26:06;;;;;;;4.57;3.53;;;;;;;26.74;37.00;100215.27;1753917;80;20975;-81
2022/06/24 11:28:38;;;;;;;4.23;3.53;;;;;;;26.97;37.08;100210.41;1752035;80;21537;-80
2022/06/24 11:31:26;;;;;;;5.07;3.60;;;;;;;27.26;36.79;100204.65;1755611;80;21059;-78
2022/06/24 11:34:04;;;;;;;7.57;3.97;;;;;;;27.50;35.87;100209.34;1753374;80;21090;-79
2022/06/24 11:36:32;;;;;;;6.93;3.60;;;;;;;27.64;35.29;100208.09;1779993;80;21086;-78
2022/06/24 11:39:06;;;;;;;6.30;3.33;;;;;;;27.60;34.65;100204.52;1779654;79;21102;-78
2022/06/24 11:41:37;;;;;;;6.37;3.90;;;;;;;27.46;34.86;100201.09;1780017;79;21112;-77
2022/06/24 11:44:04;;;;;;;5.77;3.50;;;;;;;27.37;34.74;100207.47;1778656;80;21051;-81
2022/06/24 11:46:32;;;;;;;7.67;3.77;;;;;;;27.38;34.70;100198.66;1778180;79;21023;-77
2022/06/24 11:49:08;;;;;;;5.20;3.60;;;;;;;27.35;34.50;100198.27;1779617;79;22309;-76